sensor_id;sensor_type;location;lat;lon;timestamp;temperature;humidity
31391;DHT22;18022;45.492;11.548;2024-02-21T00:02:22;9.00;99.90
31391;DHT22;18022;45.492;11.548;2024-02-21T00:04:53;8.90;99.90
31391;DHT22;18022;45.492;11.548;2024-02-21T00:07:29;8.80;99.90
31391;DHT22;18022;45.492;11.548;2024-02-21T00:09:54;8.60;99.90
31391;DHT22;18022;45.492;11.548;2024-02-21T00:15:43;8.60;99.90
31391;DHT22;18022;45.492;11.548;2024-02-21T00:18:09;8.70;99.90
31391;DHT22;18022;45.492;11.548;2024-02-21T00:23:44;8.50;99.90
31391;DHT22;18022;45.492;11.548;2024-02-21T00:30:19;8.50;99.90
31391;DHT22;18022;45.492;11.548;2024-02-21T00:39:51;8.40;99.90
31391;DHT22;18022;45.492;11.548;2024-02-21T00:42:34;8.70;99.90
31391;DHT22;18022;45.492;11.548;2024-02-21T01:02:17;7.70;99.90
31391;DHT22;18022;45.492;11.548;2024-02-21T01:04:49;7.80;99.90
31391;DHT22;18022;45.492;11.548;2024-02-21T01:07:14;7.70;99.90
31391;DHT22;18022;45.492;11.548;2024-02-21T01:09:43;7.80;99.90
31391;DHT22;18022;45.492;11.548;2024-02-21T01:12:18;7.80;99.90
31391;DHT22;18022;45.492;11.548;2024-02-21T01:18:06;7.70;99.90
31391;DHT22;18022;45.492;11.548;2024-02-21T01:20:32;7.90;99.90
31391;DHT22;18022;45.492;11.548;2024-02-21T01:22:57;7.90;99.90
31391;DHT22;18022;45.492;11.548;2024-02-21T01:25:23;7.90;99.90
31391;DHT22;18022;45.492;11.548;2024-02-21T01:27:49;7.90;99.90
31391;DHT22;18022;45.492;11.548;2024-02-21T01:30:15;7.90;99.90
31391;DHT22;18022;45.492;11.548;2024-02-21T01:32:40;7.90;99.90
31391;DHT22;18022;45.492;11.548;2024-02-21T01:35:07;7.80;99.90
31391;DHT22;18022;45.492;11.548;2024-02-21T01:37:33;7.80;99.90
31391;DHT22;18022;45.492;11.548;2024-02-21T01:39:59;7.60;99.90
31391;DHT22;18022;45.492;11.548;2024-02-21T01:42:25;7.60;99.90
31391;DHT22;18022;45.492;11.548;2024-02-21T01:44:50;7.50;99.90
31391;DHT22;18022;45.492;11.548;2024-02-21T01:47:16;7.40;99.90
31391;DHT22;18022;45.492;11.548;2024-02-21T01:49:42;7.10;99.90
31391;DHT22;18022;45.492;11.548;2024-02-21T01:52:09;7.10;99.90
31391;DHT22;18022;45.492;11.548;2024-02-21T01:54:37;7.20;99.90
31391;DHT22;18022;45.492;11.548;2024-02-21T01:57:03;7.10;99.90
31391;DHT22;18022;45.492;11.548;2024-02-21T01:59:30;6.90;99.90
31391;DHT22;18022;45.492;11.548;2024-02-21T02:01:56;7.10;99.90
31391;DHT22;18022;45.492;11.548;2024-02-21T02:04:22;7.20;99.90
31391;DHT22;18022;45.492;11.548;2024-02-21T02:06:50;7.20;99.90
31391;DHT22;18022;45.492;11.548;2024-02-21T02:09:16;7.30;99.90
31391;DHT22;18022;45.492;11.548;2024-02-21T02:11:43;7.30;99.90
31391;DHT22;18022;45.492;11.548;2024-02-21T02:14:08;7.40;99.90
31391;DHT22;18022;45.492;11.548;2024-02-21T02:16:34;7.40;99.90
31391;DHT22;18022;45.492;11.548;2024-02-21T02:19:00;7.20;99.90
31391;DHT22;18022;45.492;11.548;2024-02-21T02:21:39;7.10;99.90
31391;DHT22;18022;45.492;11.548;2024-02-21T02:24:07;6.90;99.90
31391;DHT22;18022;45.492;11.548;2024-02-21T02:26:33;7.00;99.90
31391;DHT22;18022;45.492;11.548;2024-02-21T02:28:58;7.00;99.90
31391;DHT22;18022;45.492;11.548;2024-02-21T02:31:26;7.20;99.90
31391;DHT22;18022;45.492;11.548;2024-02-21T02:33:52;7.20;99.90
31391;DHT22;18022;45.492;11.548;2024-02-21T02:36:18;7.20;99.90
31391;DHT22;18022;45.492;11.548;2024-02-21T02:38:43;7.20;99.90
31391;DHT22;18022;45.492;11.548;2024-02-21T02:41:09;7.10;99.90
31391;DHT22;18022;45.492;11.548;2024-02-21T02:43:35;7.00;99.90
31391;DHT22;18022;45.492;11.548;2024-02-21T02:46:02;7.00;99.90
31391;DHT22;18022;45.492;11.548;2024-02-21T02:48:28;7.00;99.90
31391;DHT22;18022;45.492;11.548;2024-02-21T02:50:53;6.90;99.90
31391;DHT22;18022;45.492;11.548;2024-02-21T02:53:19;6.90;99.90
31391;DHT22;18022;45.492;11.548;2024-02-21T02:55:45;6.90;99.90
31391;DHT22;18022;45.492;11.548;2024-02-21T02:58:10;6.90;99.90
31391;DHT22;18022;45.492;11.548;2024-02-21T03:00:36;6.90;99.90
31391;DHT22;18022;45.492;11.548;2024-02-21T03:03:02;6.90;99.90
31391;DHT22;18022;45.492;11.548;2024-02-21T03:05:30;7.10;99.90
31391;DHT22;18022;45.492;11.548;2024-02-21T03:07:56;7.00;99.90
31391;DHT22;18022;45.492;11.548;2024-02-21T03:10:22;7.20;99.90
31391;DHT22;18022;45.492;11.548;2024-02-21T03:12:47;7.30;99.90
31391;DHT22;18022;45.492;11.548;2024-02-21T03:15:13;7.40;99.90
31391;DHT22;18022;45.492;11.548;2024-02-21T03:17:40;7.40;99.90
31391;DHT22;18022;45.492;11.548;2024-02-21T03:20:06;7.20;99.90
31391;DHT22;18022;45.492;11.548;2024-02-21T03:22:35;6.90;99.90
31391;DHT22;18022;45.492;11.548;2024-02-21T03:25:01;6.80;99.90
31391;DHT22;18022;45.492;11.548;2024-02-21T03:27:27;6.80;99.90
31391;DHT22;18022;45.492;11.548;2024-02-21T03:29:52;6.80;99.90
31391;DHT22;18022;45.492;11.548;2024-02-21T03:32:18;6.80;99.90
31391;DHT22;18022;45.492;11.548;2024-02-21T03:34:44;6.80;99.90
31391;DHT22;18022;45.492;11.548;2024-02-21T03:37:09;6.90;99.90
31391;DHT22;18022;45.492;11.548;2024-02-21T03:39:35;7.00;99.90
31391;DHT22;18022;45.492;11.548;2024-02-21T03:42:02;6.90;99.90
31391;DHT22;18022;45.492;11.548;2024-02-21T03:44:33;6.90;99.90
31391;DHT22;18022;45.492;11.548;2024-02-21T03:46:59;6.90;99.90
31391;DHT22;18022;45.492;11.548;2024-02-21T03:49:25;6.80;99.90
31391;DHT22;18022;45.492;11.548;2024-02-21T03:51:51;6.80;99.90
31391;DHT22;18022;45.492;11.548;2024-02-21T03:54:18;6.70;99.90
31391;DHT22;18022;45.492;11.548;2024-02-21T03:56:44;6.70;99.90
31391;DHT22;18022;45.492;11.548;2024-02-21T03:59:09;6.70;99.90
31391;DHT22;18022;45.492;11.548;2024-02-21T04:01:35;6.80;99.90
31391;DHT22;18022;45.492;11.548;2024-02-21T04:04:02;6.70;99.90
31391;DHT22;18022;45.492;11.548;2024-02-21T04:06:28;6.50;99.90
31391;DHT22;18022;45.492;11.548;2024-02-21T04:08:53;6.50;99.90
31391;DHT22;18022;45.492;11.548;2024-02-21T04:11:19;6.50;99.90
31391;DHT22;18022;45.492;11.548;2024-02-21T04:13:45;6.60;99.90
31391;DHT22;18022;45.492;11.548;2024-02-21T04:16:14;6.60;99.90
31391;DHT22;18022;45.492;11.548;2024-02-21T04:18:40;6.70;99.90
31391;DHT22;18022;45.492;11.548;2024-02-21T04:21:06;6.70;99.90
31391;DHT22;18022;45.492;11.548;2024-02-21T04:23:31;6.60;99.90
31391;DHT22;18022;45.492;11.548;2024-02-21T04:25:57;6.50;99.90
31391;DHT22;18022;45.492;11.548;2024-02-21T04:28:23;6.50;99.90
31391;DHT22;18022;45.492;11.548;2024-02-21T04:30:48;6.50;99.90
31391;DHT22;18022;45.492;11.548;2024-02-21T04:33:14;6.50;99.90
31391;DHT22;18022;45.492;11.548;2024-02-21T04:35:40;6.60;99.90
31391;DHT22;18022;45.492;11.548;2024-02-21T04:38:05;6.60;99.90
31391;DHT22;18022;45.492;11.548;2024-02-21T04:40:31;6.80;99.90
31391;DHT22;18022;45.492;11.548;2024-02-21T04:42:58;6.80;99.90
31391;DHT22;18022;45.492;11.548;2024-02-21T04:45:23;6.50;99.90
31391;DHT22;18022;45.492;11.548;2024-02-21T04:47:49;6.20;99.90
31391;DHT22;18022;45.492;11.548;2024-02-21T04:50:15;5.80;99.90
31391;DHT22;18022;45.492;11.548;2024-02-21T04:52:41;5.70;99.90
31391;DHT22;18022;45.492;11.548;2024-02-21T04:55:07;5.70;99.90
31391;DHT22;18022;45.492;11.548;2024-02-21T04:57:33;5.70;99.90
31391;DHT22;18022;45.492;11.548;2024-02-21T04:59:59;5.80;99.90
31391;DHT22;18022;45.492;11.548;2024-02-21T05:02:24;5.80;99.90
31391;DHT22;18022;45.492;11.548;2024-02-21T05:04:52;5.90;99.90
31391;DHT22;18022;45.492;11.548;2024-02-21T05:07:18;6.10;99.90
31391;DHT22;18022;45.492;11.548;2024-02-21T05:09:45;6.30;99.90
31391;DHT22;18022;45.492;11.548;2024-02-21T05:12:10;6.30;99.90
31391;DHT22;18022;45.492;11.548;2024-02-21T05:14:36;6.20;99.90
31391;DHT22;18022;45.492;11.548;2024-02-21T05:17:05;6.20;99.90
31391;DHT22;18022;45.492;11.548;2024-02-21T05:19:31;6.20;99.90
31391;DHT22;18022;45.492;11.548;2024-02-21T05:21:58;6.10;99.90
31391;DHT22;18022;45.492;11.548;2024-02-21T05:24:24;6.00;99.90
31391;DHT22;18022;45.492;11.548;2024-02-21T05:26:49;5.90;99.90
31391;DHT22;18022;45.492;11.548;2024-02-21T05:29:15;5.90;99.90
31391;DHT22;18022;45.492;11.548;2024-02-21T05:34:18;6.00;99.90
31391;DHT22;18022;45.492;11.548;2024-02-21T05:36:44;6.00;99.90
31391;DHT22;18022;45.492;11.548;2024-02-21T05:39:11;6.10;99.90
31391;DHT22;18022;45.492;11.548;2024-02-21T05:41:37;6.00;99.90
31391;DHT22;18022;45.492;11.548;2024-02-21T05:44:03;6.00;99.90
31391;DHT22;18022;45.492;11.548;2024-02-21T05:46:28;6.00;99.90
31391;DHT22;18022;45.492;11.548;2024-02-21T05:48:54;6.00;99.90
31391;DHT22;18022;45.492;11.548;2024-02-21T05:51:20;6.10;99.90
31391;DHT22;18022;45.492;11.548;2024-02-21T05:53:46;6.20;99.90
31391;DHT22;18022;45.492;11.548;2024-02-21T05:56:12;6.40;99.90
31391;DHT22;18022;45.492;11.548;2024-02-21T05:58:38;6.40;99.90
31391;DHT22;18022;45.492;11.548;2024-02-21T06:01:04;6.70;99.90
31391;DHT22;18022;45.492;11.548;2024-02-21T06:03:32;6.70;99.90
31391;DHT22;18022;45.492;11.548;2024-02-21T06:05:58;6.70;99.90
31391;DHT22;18022;45.492;11.548;2024-02-21T06:08:24;6.70;99.90
31391;DHT22;18022;45.492;11.548;2024-02-21T06:10:50;6.50;99.90
31391;DHT22;18022;45.492;11.548;2024-02-21T06:13:26;6.40;99.90
31391;DHT22;18022;45.492;11.548;2024-02-21T06:15:51;6.50;99.90
31391;DHT22;18022;45.492;11.548;2024-02-21T06:18:17;6.40;99.90
31391;DHT22;18022;45.492;11.548;2024-02-21T06:20:44;6.50;99.90
31391;DHT22;18022;45.492;11.548;2024-02-21T06:23:11;6.40;99.90
31391;DHT22;18022;45.492;11.548;2024-02-21T06:25:37;6.30;99.90
31391;DHT22;18022;45.492;11.548;2024-02-21T06:28:03;6.30;99.90
31391;DHT22;18022;45.492;11.548;2024-02-21T06:30:47;6.40;99.90
31391;DHT22;18022;45.492;11.548;2024-02-21T06:36:10;6.50;99.90
31391;DHT22;18022;45.492;11.548;2024-02-21T06:38:55;6.50;99.90
31391;DHT22;18022;45.492;11.548;2024-02-21T06:41:21;6.50;99.90
31391;DHT22;18022;45.492;11.548;2024-02-21T06:43:47;6.30;99.90
31391;DHT22;18022;45.492;11.548;2024-02-21T06:46:29;6.10;99.90
31391;DHT22;18022;45.492;11.548;2024-02-21T06:48:55;6.00;99.90
31391;DHT22;18022;45.492;11.548;2024-02-21T06:51:22;6.00;99.90
31391;DHT22;18022;45.492;11.548;2024-02-21T06:53:48;5.90;99.90
31391;DHT22;18022;45.492;11.548;2024-02-21T06:56:14;6.00;99.90
31391;DHT22;18022;45.492;11.548;2024-02-21T06:58:40;6.10;99.90
31391;DHT22;18022;45.492;11.548;2024-02-21T07:01:07;6.10;99.90
31391;DHT22;18022;45.492;11.548;2024-02-21T07:03:32;6.20;99.90
31391;DHT22;18022;45.492;11.548;2024-02-21T07:05:58;6.20;99.90
31391;DHT22;18022;45.492;11.548;2024-02-21T07:08:24;6.20;99.90
31391;DHT22;18022;45.492;11.548;2024-02-21T07:10:50;7.10;99.90
31391;DHT22;18022;45.492;11.548;2024-02-21T07:13:15;7.20;99.90
31391;DHT22;18022;45.492;11.548;2024-02-21T07:15:42;6.70;99.90
31391;DHT22;18022;45.492;11.548;2024-02-21T07:18:07;6.50;99.90
31391;DHT22;18022;45.492;11.548;2024-02-21T07:20:33;6.50;99.90
31391;DHT22;18022;45.492;11.548;2024-02-21T07:22:59;6.50;99.90
31391;DHT22;18022;45.492;11.548;2024-02-21T07:25:25;6.60;99.90
31391;DHT22;18022;45.492;11.548;2024-02-21T07:27:51;6.70;99.90
31391;DHT22;18022;45.492;11.548;2024-02-21T07:30:16;6.80;99.90
31391;DHT22;18022;45.492;11.548;2024-02-21T07:32:42;6.90;99.90
31391;DHT22;18022;45.492;11.548;2024-02-21T07:35:08;7.00;99.90
31391;DHT22;18022;45.492;11.548;2024-02-21T07:37:38;7.00;99.90
31391;DHT22;18022;45.492;11.548;2024-02-21T07:40:05;7.10;99.90
31391;DHT22;18022;45.492;11.548;2024-02-21T07:42:31;7.20;99.90
31391;DHT22;18022;45.492;11.548;2024-02-21T07:44:57;7.30;99.90
31391;DHT22;18022;45.492;11.548;2024-02-21T07:47:22;7.30;99.90
31391;DHT22;18022;45.492;11.548;2024-02-21T07:49:48;7.50;99.90
31391;DHT22;18022;45.492;11.548;2024-02-21T07:52:14;7.70;99.90
31391;DHT22;18022;45.492;11.548;2024-02-21T07:54:40;7.90;99.90
31391;DHT22;18022;45.492;11.548;2024-02-21T07:57:07;7.80;99.90
31391;DHT22;18022;45.492;11.548;2024-02-21T07:59:33;7.80;99.90
31391;DHT22;18022;45.492;11.548;2024-02-21T08:01:59;8.00;99.90
31391;DHT22;18022;45.492;11.548;2024-02-21T08:04:25;8.20;99.90
31391;DHT22;18022;45.492;11.548;2024-02-21T08:06:54;8.30;99.90
31391;DHT22;18022;45.492;11.548;2024-02-21T08:09:24;8.30;99.90
31391;DHT22;18022;45.492;11.548;2024-02-21T08:11:50;8.40;99.90
31391;DHT22;18022;45.492;11.548;2024-02-21T08:14:16;8.50;99.90
31391;DHT22;18022;45.492;11.548;2024-02-21T08:16:43;8.60;99.90
31391;DHT22;18022;45.492;11.548;2024-02-21T08:19:10;8.60;99.90
31391;DHT22;18022;45.492;11.548;2024-02-21T08:21:36;8.80;99.90
31391;DHT22;18022;45.492;11.548;2024-02-21T08:24:01;8.90;99.90
31391;DHT22;18022;45.492;11.548;2024-02-21T08:26:27;9.00;99.90
31391;DHT22;18022;45.492;11.548;2024-02-21T08:28:56;9.10;99.90
31391;DHT22;18022;45.492;11.548;2024-02-21T08:31:24;9.20;99.90
31391;DHT22;18022;45.492;11.548;2024-02-21T08:33:57;9.20;99.90
31391;DHT22;18022;45.492;11.548;2024-02-21T08:36:30;9.40;99.90
31391;DHT22;18022;45.492;11.548;2024-02-21T08:38:56;9.60;99.90
31391;DHT22;18022;45.492;11.548;2024-02-21T08:41:23;9.60;99.90
31391;DHT22;18022;45.492;11.548;2024-02-21T08:43:51;9.70;99.90
31391;DHT22;18022;45.492;11.548;2024-02-21T08:46:17;9.80;99.90
31391;DHT22;18022;45.492;11.548;2024-02-21T08:48:43;9.90;99.90
31391;DHT22;18022;45.492;11.548;2024-02-21T08:51:12;10.20;99.90
31391;DHT22;18022;45.492;11.548;2024-02-21T08:53:38;10.30;99.90
31391;DHT22;18022;45.492;11.548;2024-02-21T08:56:04;10.30;99.90
31391;DHT22;18022;45.492;11.548;2024-02-21T08:58:30;10.40;99.90
31391;DHT22;18022;45.492;11.548;2024-02-21T09:00:56;10.60;99.90
31391;DHT22;18022;45.492;11.548;2024-02-21T09:03:22;10.50;99.90
31391;DHT22;18022;45.492;11.548;2024-02-21T09:05:48;10.60;99.90
31391;DHT22;18022;45.492;11.548;2024-02-21T09:08:14;10.80;99.90
31391;DHT22;18022;45.492;11.548;2024-02-21T09:10:40;10.90;99.90
31391;DHT22;18022;45.492;11.548;2024-02-21T09:13:06;10.90;99.90
31391;DHT22;18022;45.492;11.548;2024-02-21T09:15:33;10.90;99.90
31391;DHT22;18022;45.492;11.548;2024-02-21T09:17:59;11.10;99.90
31391;DHT22;18022;45.492;11.548;2024-02-21T09:20:24;11.30;99.90
31391;DHT22;18022;45.492;11.548;2024-02-21T09:22:50;11.40;99.90
31391;DHT22;18022;45.492;11.548;2024-02-21T09:25:17;11.50;99.20
31391;DHT22;18022;45.492;11.548;2024-02-21T09:27:44;11.60;97.50
31391;DHT22;18022;45.492;11.548;2024-02-21T09:30:11;11.80;97.80
31391;DHT22;18022;45.492;11.548;2024-02-21T09:32:37;12.00;96.60
31391;DHT22;18022;45.492;11.548;2024-02-21T09:35:04;12.20;95.50
31391;DHT22;18022;45.492;11.548;2024-02-21T09:37:33;12.40;94.50
31391;DHT22;18022;45.492;11.548;2024-02-21T09:39:59;12.50;94.10
31391;DHT22;18022;45.492;11.548;2024-02-21T09:42:36;12.60;93.00
31391;DHT22;18022;45.492;11.548;2024-02-21T09:45:02;12.80;93.10
31391;DHT22;18022;45.492;11.548;2024-02-21T09:50:34;13.10;93.50
31391;DHT22;18022;45.492;11.548;2024-02-21T09:53:02;13.20;93.50
31391;DHT22;18022;45.492;11.548;2024-02-21T09:55:30;13.30;93.30
31391;DHT22;18022;45.492;11.548;2024-02-21T09:58:01;13.40;93.30
31391;DHT22;18022;45.492;11.548;2024-02-21T10:06:47;13.80;92.20
31391;DHT22;18022;45.492;11.548;2024-02-21T10:09:28;13.60;92.50
31391;DHT22;18022;45.492;11.548;2024-02-21T10:12:08;13.50;92.90
31391;DHT22;18022;45.492;11.548;2024-02-21T10:14:35;13.60;92.70
31391;DHT22;18022;45.492;11.548;2024-02-21T10:17:00;13.70;92.10
31391;DHT22;18022;45.492;11.548;2024-02-21T10:19:26;13.80;92.90
31391;DHT22;18022;45.492;11.548;2024-02-21T10:22:07;13.80;92.70
31391;DHT22;18022;45.492;11.548;2024-02-21T10:24:34;13.80;93.10
31391;DHT22;18022;45.492;11.548;2024-02-21T10:27:04;13.80;93.00
31391;DHT22;18022;45.492;11.548;2024-02-21T10:29:33;14.10;93.50
31391;DHT22;18022;45.492;11.548;2024-02-21T10:32:13;14.20;93.60
31391;DHT22;18022;45.492;11.548;2024-02-21T10:34:40;14.30;93.10
31391;DHT22;18022;45.492;11.548;2024-02-21T10:37:07;14.50;93.40
31391;DHT22;18022;45.492;11.548;2024-02-21T10:39:35;14.50;93.00
31391;DHT22;18022;45.492;11.548;2024-02-21T10:42:02;14.40;93.00
31391;DHT22;18022;45.492;11.548;2024-02-21T10:44:32;14.50;92.80
31391;DHT22;18022;45.492;11.548;2024-02-21T10:46:58;14.80;93.50
31391;DHT22;18022;45.492;11.548;2024-02-21T10:49:26;15.00;93.20
31391;DHT22;18022;45.492;11.548;2024-02-21T10:51:59;15.10;93.20
31391;DHT22;18022;45.492;11.548;2024-02-21T10:54:42;14.90;92.80
31391;DHT22;18022;45.492;11.548;2024-02-21T10:57:10;15.00;92.70
31391;DHT22;18022;45.492;11.548;2024-02-21T10:59:39;15.10;92.10
31391;DHT22;18022;45.492;11.548;2024-02-21T11:02:06;15.20;92.30
31391;DHT22;18022;45.492;11.548;2024-02-21T11:04:33;15.20;92.50
31391;DHT22;18022;45.492;11.548;2024-02-21T11:07:03;15.30;92.50
31391;DHT22;18022;45.492;11.548;2024-02-21T11:09:31;15.40;92.00
31391;DHT22;18022;45.492;11.548;2024-02-21T11:12:04;15.60;92.50
31391;DHT22;18022;45.492;11.548;2024-02-21T11:14:30;15.90;92.30
31391;DHT22;18022;45.492;11.548;2024-02-21T11:17:17;15.90;92.30
31391;DHT22;18022;45.492;11.548;2024-02-21T11:19:45;16.20;92.70
31391;DHT22;18022;45.492;11.548;2024-02-21T11:22:15;16.30;92.30
31391;DHT22;18022;45.492;11.548;2024-02-21T11:24:45;16.30;92.50
31391;DHT22;18022;45.492;11.548;2024-02-21T11:27:14;16.20;92.60
31391;DHT22;18022;45.492;11.548;2024-02-21T11:29:49;16.50;92.50
31391;DHT22;18022;45.492;11.548;2024-02-21T11:32:18;16.40;92.40
31391;DHT22;18022;45.492;11.548;2024-02-21T11:34:55;16.40;91.80
31391;DHT22;18022;45.492;11.548;2024-02-21T11:37:21;16.50;92.10
31391;DHT22;18022;45.492;11.548;2024-02-21T11:39:46;16.70;92.40
31391;DHT22;18022;45.492;11.548;2024-02-21T11:42:14;16.90;92.40
31391;DHT22;18022;45.492;11.548;2024-02-21T11:44:40;17.20;92.40
31391;DHT22;18022;45.492;11.548;2024-02-21T11:47:08;17.20;92.50
31391;DHT22;18022;45.492;11.548;2024-02-21T11:49:38;17.30;92.40
31391;DHT22;18022;45.492;11.548;2024-02-21T11:52:06;17.40;93.00
31391;DHT22;18022;45.492;11.548;2024-02-21T11:54:33;17.50;92.80
31391;DHT22;18022;45.492;11.548;2024-02-21T11:57:00;17.50;91.90
31391;DHT22;18022;45.492;11.548;2024-02-21T11:59:26;17.70;92.40
31391;DHT22;18022;45.492;11.548;2024-02-21T12:01:53;17.80;92.20
31391;DHT22;18022;45.492;11.548;2024-02-21T12:04:20;17.70;91.20
31391;DHT22;18022;45.492;11.548;2024-02-21T12:06:46;17.70;91.80
31391;DHT22;18022;45.492;11.548;2024-02-21T12:09:15;17.80;91.60
31391;DHT22;18022;45.492;11.548;2024-02-21T12:11:42;17.80;91.00
31391;DHT22;18022;45.492;11.548;2024-02-21T12:14:07;17.60;90.90
31391;DHT22;18022;45.492;11.548;2024-02-21T12:16:35;17.80;91.90
31391;DHT22;18022;45.492;11.548;2024-02-21T12:19:04;17.90;91.70
31391;DHT22;18022;45.492;11.548;2024-02-21T12:21:31;17.70;90.70
31391;DHT22;18022;45.492;11.548;2024-02-21T12:23:58;17.90;91.60
31391;DHT22;18022;45.492;11.548;2024-02-21T12:26:24;17.80;91.70
31391;DHT22;18022;45.492;11.548;2024-02-21T12:28:50;17.90;92.30
31391;DHT22;18022;45.492;11.548;2024-02-21T12:31:15;17.90;91.50
31391;DHT22;18022;45.492;11.548;2024-02-21T12:33:44;17.80;91.70
31391;DHT22;18022;45.492;11.548;2024-02-21T12:36:10;18.00;92.10
31391;DHT22;18022;45.492;11.548;2024-02-21T12:38:36;18.10;91.70
31391;DHT22;18022;45.492;11.548;2024-02-21T12:41:02;18.00;91.40
31391;DHT22;18022;45.492;11.548;2024-02-21T12:43:28;17.80;91.80
31391;DHT22;18022;45.492;11.548;2024-02-21T12:45:54;17.90;91.50
31391;DHT22;18022;45.492;11.548;2024-02-21T12:48:20;17.50;91.60
31391;DHT22;18022;45.492;11.548;2024-02-21T12:50:49;17.30;91.80
31391;DHT22;18022;45.492;11.548;2024-02-21T12:53:17;17.30;91.80
31391;DHT22;18022;45.492;11.548;2024-02-21T12:55:45;17.40;91.80
31391;DHT22;18022;45.492;11.548;2024-02-21T12:58:11;17.60;91.30
31391;DHT22;18022;45.492;11.548;2024-02-21T13:00:36;17.50;91.40
31391;DHT22;18022;45.492;11.548;2024-02-21T13:03:03;17.70;92.20
31391;DHT22;18022;45.492;11.548;2024-02-21T13:05:29;17.70;92.00
31391;DHT22;18022;45.492;11.548;2024-02-21T13:07:55;17.70;91.20
31391;DHT22;18022;45.492;11.548;2024-02-21T13:10:20;17.70;91.40
31391;DHT22;18022;45.492;11.548;2024-02-21T13:12:47;17.50;90.20
31391;DHT22;18022;45.492;11.548;2024-02-21T13:15:12;17.20;90.60
31391;DHT22;18022;45.492;11.548;2024-02-21T13:17:38;17.10;91.30
31391;DHT22;18022;45.492;11.548;2024-02-21T13:20:05;17.20;91.80
31391;DHT22;18022;45.492;11.548;2024-02-21T13:22:31;17.30;90.40
31391;DHT22;18022;45.492;11.548;2024-02-21T13:24:57;17.40;90.60
31391;DHT22;18022;45.492;11.548;2024-02-21T13:27:24;17.00;91.20
31391;DHT22;18022;45.492;11.548;2024-02-21T13:29:49;17.00;92.00
31391;DHT22;18022;45.492;11.548;2024-02-21T13:32:15;16.90;92.70
31391;DHT22;18022;45.492;11.548;2024-02-21T13:34:41;17.00;92.30
31391;DHT22;18022;45.492;11.548;2024-02-21T13:37:07;17.00;91.00
31391;DHT22;18022;45.492;11.548;2024-02-21T13:39:35;17.00;91.70
31391;DHT22;18022;45.492;11.548;2024-02-21T13:42:02;17.00;91.50
31391;DHT22;18022;45.492;11.548;2024-02-21T13:44:30;17.10;91.40
31391;DHT22;18022;45.492;11.548;2024-02-21T13:46:55;17.00;92.40
31391;DHT22;18022;45.492;11.548;2024-02-21T13:49:21;16.80;93.00
31391;DHT22;18022;45.492;11.548;2024-02-21T13:51:47;17.00;93.00
31391;DHT22;18022;45.492;11.548;2024-02-21T13:54:13;17.00;92.40
31391;DHT22;18022;45.492;11.548;2024-02-21T13:56:42;16.70;92.60
31391;DHT22;18022;45.492;11.548;2024-02-21T13:59:08;16.80;91.90
31391;DHT22;18022;45.492;11.548;2024-02-21T14:01:34;16.80;92.50
31391;DHT22;18022;45.492;11.548;2024-02-21T14:04:01;16.90;92.50
31391;DHT22;18022;45.492;11.548;2024-02-21T14:06:27;16.80;92.30
31391;DHT22;18022;45.492;11.548;2024-02-21T14:08:53;16.70;92.60
31391;DHT22;18022;45.492;11.548;2024-02-21T14:11:18;16.70;93.10
31391;DHT22;18022;45.492;11.548;2024-02-21T14:13:44;16.70;92.90
31391;DHT22;18022;45.492;11.548;2024-02-21T14:16:10;16.80;93.20
31391;DHT22;18022;45.492;11.548;2024-02-21T14:18:42;16.50;93.60
31391;DHT22;18022;45.492;11.548;2024-02-21T14:21:08;16.30;93.20
31391;DHT22;18022;45.492;11.548;2024-02-21T14:23:39;16.30;93.30
31391;DHT22;18022;45.492;11.548;2024-02-21T14:26:05;16.70;93.50
31391;DHT22;18022;45.492;11.548;2024-02-21T14:28:32;16.60;93.80
31391;DHT22;18022;45.492;11.548;2024-02-21T14:30:59;16.50;93.00
31391;DHT22;18022;45.492;11.548;2024-02-21T14:33:26;16.40;93.20
31391;DHT22;18022;45.492;11.548;2024-02-21T14:35:52;16.50;93.30
31391;DHT22;18022;45.492;11.548;2024-02-21T14:38:19;16.30;92.80
31391;DHT22;18022;45.492;11.548;2024-02-21T14:40:45;16.40;92.70
31391;DHT22;18022;45.492;11.548;2024-02-21T14:43:11;16.30;92.40
31391;DHT22;18022;45.492;11.548;2024-02-21T14:45:37;16.30;92.20
31391;DHT22;18022;45.492;11.548;2024-02-21T14:48:04;16.20;92.60
31391;DHT22;18022;45.492;11.548;2024-02-21T14:50:30;16.10;93.00
31391;DHT22;18022;45.492;11.548;2024-02-21T14:52:56;16.30;92.80
31391;DHT22;18022;45.492;11.548;2024-02-21T14:55:22;16.20;92.80
31391;DHT22;18022;45.492;11.548;2024-02-21T14:57:48;16.10;92.80
31391;DHT22;18022;45.492;11.548;2024-02-21T15:00:14;16.20;93.00
31391;DHT22;18022;45.492;11.548;2024-02-21T15:02:40;16.10;93.10
31391;DHT22;18022;45.492;11.548;2024-02-21T15:05:06;16.20;93.10
31391;DHT22;18022;45.492;11.548;2024-02-21T15:07:32;16.20;93.10
31391;DHT22;18022;45.492;11.548;2024-02-21T15:09:58;16.10;93.00
31391;DHT22;18022;45.492;11.548;2024-02-21T15:12:24;16.00;92.90
31391;DHT22;18022;45.492;11.548;2024-02-21T15:14:51;15.90;93.00
31391;DHT22;18022;45.492;11.548;2024-02-21T15:17:17;15.80;92.90
31391;DHT22;18022;45.492;11.548;2024-02-21T15:19:43;15.80;93.20
31391;DHT22;18022;45.492;11.548;2024-02-21T15:22:12;15.90;93.30
31391;DHT22;18022;45.492;11.548;2024-02-21T15:24:41;15.90;93.90
31391;DHT22;18022;45.492;11.548;2024-02-21T15:27:08;15.70;93.60
31391;DHT22;18022;45.492;11.548;2024-02-21T15:29:35;15.80;93.90
31391;DHT22;18022;45.492;11.548;2024-02-21T15:32:03;15.80;94.00
31391;DHT22;18022;45.492;11.548;2024-02-21T15:34:29;15.70;94.00
31391;DHT22;18022;45.492;11.548;2024-02-21T15:36:56;15.70;94.20
31391;DHT22;18022;45.492;11.548;2024-02-21T15:39:22;15.60;93.90
31391;DHT22;18022;45.492;11.548;2024-02-21T15:41:48;15.50;93.80
31391;DHT22;18022;45.492;11.548;2024-02-21T15:44:14;15.60;94.10
31391;DHT22;18022;45.492;11.548;2024-02-21T15:46:40;15.60;93.90
31391;DHT22;18022;45.492;11.548;2024-02-21T15:49:06;15.60;94.00
31391;DHT22;18022;45.492;11.548;2024-02-21T15:51:33;15.50;93.90
31391;DHT22;18022;45.492;11.548;2024-02-21T15:54:00;15.50;94.10
31391;DHT22;18022;45.492;11.548;2024-02-21T15:56:26;15.50;94.10
31391;DHT22;18022;45.492;11.548;2024-02-21T15:58:53;15.40;94.10
31391;DHT22;18022;45.492;11.548;2024-02-21T16:01:20;15.40;94.00
31391;DHT22;18022;45.492;11.548;2024-02-21T16:03:46;15.30;94.40
31391;DHT22;18022;45.492;11.548;2024-02-21T16:06:12;15.30;94.30
31391;DHT22;18022;45.492;11.548;2024-02-21T16:08:37;15.30;94.30
31391;DHT22;18022;45.492;11.548;2024-02-21T16:11:06;15.30;94.10
31391;DHT22;18022;45.492;11.548;2024-02-21T16:13:34;15.30;94.20
31391;DHT22;18022;45.492;11.548;2024-02-21T16:16:01;15.20;94.20
31391;DHT22;18022;45.492;11.548;2024-02-21T16:18:28;15.20;94.40